createdAt,value
2018-07-04T00:02:25.563Z,8.27
2018-07-04T00:05:11.877Z,8.30
2018-07-04T00:07:58.183Z,9.20
2018-07-04T00:10:44.838Z,9.37
2018-07-04T00:13:31.246Z,8.03
2018-07-04T00:16:17.675Z,8.70
2018-07-04T00:19:04.152Z,9.10
2018-07-04T00:21:50.406Z,8.83
2018-07-04T00:24:36.786Z,8.90
2018-07-04T00:27:23.281Z,8.27
2018-07-04T00:30:09.536Z,8.87
2018-07-04T00:32:55.644Z,8.57
2018-07-04T00:35:41.974Z,8.63
2018-07-04T00:38:28.238Z,9.13
2018-07-04T00:41:14.663Z,9.33
2018-07-04T00:44:00.902Z,9.10
2018-07-04T00:46:47.518Z,10.50
2018-07-04T00:49:33.913Z,9.10
2018-07-04T00:52:19.971Z,10.40
2018-07-04T00:55:06.437Z,10.50
2018-07-04T00:57:52.610Z,9.30
2018-07-04T01:00:39.342Z,10.17
2018-07-04T01:03:25.590Z,9.87
2018-07-04T01:06:11.684Z,10.20
2018-07-04T01:08:57.867Z,9.63
2018-07-04T01:11:44.011Z,10.83
2018-07-04T01:14:30.259Z,10.10
2018-07-04T01:17:17.068Z,9.30
2018-07-04T01:20:03.283Z,9.63
2018-07-04T01:22:49.564Z,9.40
2018-07-04T01:25:35.925Z,9.77
2018-07-04T01:28:26.597Z,9.60
2018-07-04T01:31:12.665Z,9.60
2018-07-04T01:33:59.225Z,9.50
2018-07-04T01:36:45.420Z,9.90
2018-07-04T01:39:31.475Z,9.97
2018-07-04T01:42:17.667Z,11.03
2018-07-04T01:45:03.922Z,10.47
2018-07-04T01:47:50.128Z,10.60
2018-07-04T01:50:36.500Z,9.60
2018-07-04T01:53:23.069Z,10.80
2018-07-04T01:56:09.366Z,10.63
2018-07-04T01:58:55.711Z,11.60
2018-07-04T02:01:42.072Z,10.10
2018-07-04T02:04:28.251Z,10.30
2018-07-04T02:07:14.658Z,11.23
2018-07-04T02:10:00.885Z,9.33
2018-07-04T02:12:46.986Z,10.73
2018-07-04T02:15:33.219Z,10.40
2018-07-04T02:18:19.471Z,10.90
2018-07-04T02:21:05.691Z,10.70
2018-07-04T02:23:52.315Z,10.03
2018-07-04T02:26:32.599Z,11.67
2018-07-04T02:29:19.072Z,11.73
2018-07-04T02:32:05.428Z,10.73
2018-07-04T02:34:55.840Z,11.47
2018-07-04T02:37:42.960Z,11.50
2018-07-04T02:40:29.376Z,11.20
2018-07-04T02:43:15.522Z,12.60
2018-07-04T02:46:01.826Z,12.00
2018-07-04T02:48:48.056Z,11.93
2018-07-04T02:51:34.324Z,12.60
2018-07-04T02:54:20.681Z,12.43
2018-07-04T02:57:07.161Z,11.93
2018-07-04T02:59:53.690Z,12.03
2018-07-04T03:02:40.103Z,12.07
2018-07-04T03:05:20.323Z,12.17
2018-07-04T03:08:06.455Z,12.50
2018-07-04T03:10:53.039Z,12.50
2018-07-04T03:13:39.518Z,12.03
2018-07-04T03:16:25.727Z,12.60
2018-07-04T03:19:12.008Z,13.17
2018-07-04T03:21:58.521Z,11.73
2018-07-04T03:24:44.891Z,13.20
2018-07-04T03:27:31.218Z,12.83
2018-07-04T03:30:17.700Z,12.00
2018-07-04T03:33:04.239Z,13.20
2018-07-04T03:35:50.593Z,11.90
2018-07-04T03:38:36.755Z,13.07
2018-07-04T03:41:23.032Z,11.67
2018-07-04T03:44:09.365Z,13.30
2018-07-04T03:46:56.324Z,13.30
2018-07-04T03:49:42.636Z,13.40
2018-07-04T03:52:28.887Z,11.57
2018-07-04T03:55:15.093Z,13.77
2018-07-04T03:57:55.181Z,12.90
2018-07-04T04:00:41.429Z,12.00
2018-07-04T04:03:27.861Z,13.10
2018-07-04T04:06:14.280Z,12.37
2018-07-04T04:09:00.664Z,12.23
2018-07-04T04:11:46.919Z,11.50
2018-07-04T04:14:33.187Z,12.87
2018-07-04T04:17:19.828Z,11.80
2018-07-04T04:20:06.534Z,10.67
2018-07-04T04:22:52.787Z,11.43
2018-07-04T04:25:39.211Z,11.80
2018-07-04T04:28:25.499Z,10.17
2018-07-04T04:31:11.925Z,11.13
2018-07-04T04:33:58.286Z,10.23
2018-07-04T04:36:44.919Z,11.50
2018-07-04T04:39:31.411Z,11.37
2018-07-04T04:42:17.561Z,10.57
2018-07-04T04:45:03.779Z,10.63
2018-07-04T04:47:44.089Z,11.47
2018-07-04T04:50:30.208Z,9.40
2018-07-04T04:53:16.562Z,10.50
2018-07-04T04:56:02.802Z,9.10
2018-07-04T04:58:49.233Z,9.40
2018-07-04T05:01:35.503Z,9.40
2018-07-04T05:04:21.790Z,8.47
2018-07-04T05:07:08.122Z,11.67
2018-07-04T05:09:54.705Z,7.67
2018-07-04T05:12:40.908Z,7.37
2018-07-04T05:15:27.270Z,8.80
2018-07-04T05:18:13.557Z,7.40
2018-07-04T05:20:59.776Z,7.80
2018-07-04T05:23:45.938Z,6.77
2018-07-04T05:26:37.147Z,8.70
2018-07-04T05:29:23.373Z,8.40
2018-07-04T05:32:09.915Z,8.40
2018-07-04T05:34:56.177Z,7.17
2018-07-04T05:37:42.308Z,7.53
2018-07-04T05:40:28.574Z,6.53
2018-07-04T05:43:15.043Z,6.93
2018-07-04T05:46:01.291Z,6.30
2018-07-04T05:48:47.569Z,6.07
2018-07-04T05:51:33.725Z,6.00
2018-07-04T05:54:20.234Z,6.60
2018-07-04T05:57:06.534Z,6.10
2018-07-04T05:59:53.207Z,5.90
2018-07-04T06:02:39.400Z,5.33
2018-07-04T06:05:25.609Z,4.97
2018-07-04T06:08:11.860Z,4.87
2018-07-04T06:10:58.069Z,4.73
2018-07-04T06:13:44.426Z,5.00
2018-07-04T06:16:30.796Z,5.13
2018-07-04T06:19:16.903Z,6.73
2018-07-04T06:22:03.090Z,6.80
2018-07-04T06:24:49.372Z,6.70
2018-07-04T06:27:35.482Z,5.20
2018-07-04T06:30:22.086Z,6.70
2018-07-04T06:33:08.438Z,6.70
2018-07-04T06:35:48.702Z,7.30
2018-07-04T06:38:16.479Z,6.87
2018-07-04T06:40:44.252Z,7.40
2018-07-04T06:43:12.145Z,7.30
2018-07-04T06:45:39.991Z,6.80
2018-07-04T06:48:08.086Z,5.60
2018-07-04T06:50:35.931Z,5.90
2018-07-04T06:53:04.102Z,6.17
2018-07-04T06:55:31.965Z,5.23
2018-07-04T06:57:59.761Z,5.33
2018-07-04T07:00:27.562Z,5.07
2018-07-04T07:03:13.718Z,5.43
2018-07-04T07:05:59.945Z,4.87
2018-07-04T07:08:46.360Z,5.80
2018-07-04T07:11:32.980Z,5.10
2018-07-04T07:14:19.271Z,4.77
2018-07-04T07:17:05.540Z,4.83
2018-07-04T07:19:51.687Z,5.27
2018-07-04T07:22:38.082Z,6.10
2018-07-04T07:25:24.419Z,5.00
2018-07-04T07:28:11.010Z,6.23
2018-07-04T07:30:57.250Z,6.50
2018-07-04T07:33:43.498Z,5.37
2018-07-04T07:36:23.724Z,5.07
2018-07-04T07:39:09.943Z,3.83
2018-07-04T07:41:56.236Z,5.13
2018-07-04T07:44:42.745Z,4.50
2018-07-04T07:47:28.904Z,3.90
2018-07-04T07:50:15.223Z,4.50
2018-07-04T07:53:01.450Z,4.30
2018-07-04T07:55:47.849Z,4.07
2018-07-04T07:58:34.023Z,4.20
2018-07-04T08:01:20.859Z,4.90
2018-07-04T08:04:07.143Z,4.17
2018-07-04T08:06:53.413Z,3.90
2018-07-04T08:09:39.626Z,5.10
2018-07-04T08:12:25.902Z,4.20
2018-07-04T08:15:12.231Z,3.70
2018-07-04T08:17:59.078Z,3.50
2018-07-04T08:20:45.522Z,3.70
2018-07-04T08:23:31.934Z,3.40
2018-07-04T08:26:18.175Z,3.90
2018-07-04T08:29:04.733Z,3.80
2018-07-04T08:31:51.138Z,3.10
2018-07-04T08:34:37.731Z,3.13
2018-07-04T08:37:23.938Z,3.20
2018-07-04T08:40:10.164Z,3.80
2018-07-04T08:42:56.331Z,3.70
2018-07-04T08:45:42.816Z,3.50
2018-07-04T08:48:29.290Z,3.50
2018-07-04T08:51:09.892Z,2.93
2018-07-04T08:53:56.324Z,3.43
2018-07-04T08:56:42.627Z,3.20
2018-07-04T08:59:28.838Z,3.17
2018-07-04T09:02:15.004Z,3.10
2018-07-04T09:05:01.210Z,3.03
2018-07-04T09:07:47.712Z,3.50
2018-07-04T09:10:34.013Z,3.47
2018-07-04T09:13:20.055Z,3.13
2018-07-04T09:16:06.202Z,3.63
2018-07-04T09:18:52.616Z,3.73
2018-07-04T09:21:38.886Z,4.20
2018-07-04T09:24:25.515Z,3.60
2018-07-04T09:27:11.713Z,3.80
2018-07-04T09:29:57.883Z,3.30
2018-07-04T09:32:44.235Z,3.13
2018-07-04T09:35:30.482Z,2.77
2018-07-04T09:38:16.709Z,3.87
2018-07-04T09:41:03.228Z,3.00
2018-07-04T09:43:49.725Z,3.53
2018-07-04T09:46:36.139Z,4.00
2018-07-04T09:49:22.648Z,3.50
2018-07-04T09:52:08.859Z,4.03
2018-07-04T09:54:55.335Z,3.50
2018-07-04T09:57:42.386Z,3.67
2018-07-04T10:00:29.834Z,3.17
2018-07-04T10:03:16.240Z,3.70
2018-07-04T10:06:02.595Z,3.20
2018-07-04T10:08:42.751Z,3.57
2018-07-04T10:11:28.908Z,3.40
2018-07-04T10:14:15.680Z,3.23
2018-07-04T10:17:01.818Z,3.00
2018-07-04T10:19:47.890Z,4.37
2018-07-04T10:22:34.157Z,4.30
2018-07-04T10:25:20.701Z,2.80
2018-07-04T10:28:06.788Z,3.47
2018-07-04T10:30:53.370Z,3.67
2018-07-04T10:33:39.530Z,3.63
2018-07-04T10:36:25.756Z,4.23
2018-07-04T10:39:11.882Z,4.00
2018-07-04T10:41:58.021Z,3.70
2018-07-04T10:44:44.424Z,3.60
2018-07-04T10:47:30.830Z,3.40
2018-07-04T10:50:17.074Z,3.30
2018-07-04T10:53:03.597Z,3.43
2018-07-04T10:55:49.769Z,3.53
2018-07-04T10:58:36.088Z,3.17
2018-07-04T11:01:22.416Z,3.00
2018-07-04T11:04:09.427Z,3.23
2018-07-04T11:06:55.534Z,3.87
2018-07-04T11:09:41.724Z,3.70
2018-07-04T11:12:27.900Z,3.50
2018-07-04T11:15:14.131Z,3.23
2018-07-04T11:18:00.455Z,3.27
2018-07-04T11:20:47.432Z,3.47
2018-07-04T11:23:33.535Z,3.60
2018-07-04T11:26:19.820Z,3.13
2018-07-04T11:29:05.999Z,3.33
2018-07-04T11:31:53.160Z,3.13
2018-07-04T11:34:39.558Z,2.90
2018-07-04T11:37:26.180Z,2.40
2018-07-04T11:40:12.368Z,3.20
2018-07-04T11:42:58.622Z,3.03
2018-07-04T11:45:44.811Z,2.70
2018-07-04T11:48:12.615Z,4.57
2018-07-04T11:50:40.376Z,3.63
2018-07-04T11:53:08.177Z,2.90
2018-07-04T11:55:36.697Z,2.83
2018-07-04T11:58:04.493Z,3.27
2018-07-04T12:00:32.327Z,3.33
2018-07-04T12:03:00.108Z,2.93
2018-07-04T12:05:46.384Z,3.30
2018-07-04T12:08:14.189Z,3.53
2018-07-04T12:10:42.109Z,3.60
2018-07-04T12:13:09.886Z,3.30
2018-07-04T12:15:38.066Z,3.13
2018-07-04T12:18:05.824Z,3.90
2018-07-04T12:20:33.576Z,2.73
2018-07-04T12:23:01.372Z,2.70
2018-07-04T12:25:29.140Z,2.40
2018-07-04T12:27:56.935Z,2.97
2018-07-04T12:30:24.835Z,3.00
2018-07-04T12:32:52.636Z,2.83
2018-07-04T12:35:20.520Z,3.33
2018-07-04T12:37:48.513Z,3.07
2018-07-04T12:40:16.310Z,3.00
2018-07-04T12:42:44.110Z,3.40
2018-07-04T12:45:11.908Z,3.57
2018-07-04T12:47:39.697Z,3.17
2018-07-04T12:50:26.223Z,3.63
2018-07-04T12:52:54.131Z,3.20
2018-07-04T12:55:42.154Z,3.40
2018-07-04T12:58:28.935Z,3.13
2018-07-04T13:01:15.160Z,4.07
2018-07-04T13:04:01.526Z,4.30
2018-07-04T13:06:47.783Z,3.97
2018-07-04T13:09:34.197Z,4.40
2018-07-04T13:12:21.039Z,4.07
2018-07-04T13:15:07.444Z,4.40
2018-07-04T13:17:53.687Z,3.53
2018-07-04T13:20:39.818Z,2.00
2018-07-04T13:23:26.204Z,2.40
2018-07-04T13:26:12.330Z,2.10
2018-07-04T13:28:58.709Z,2.33
2018-07-04T13:31:44.833Z,2.80
2018-07-04T13:34:31.049Z,2.47
2018-07-04T13:37:17.294Z,1.80
2018-07-04T13:40:03.673Z,2.33
2018-07-04T13:42:49.757Z,2.47
2018-07-04T13:45:36.107Z,2.33
2018-07-04T13:48:22.222Z,2.47
2018-07-04T13:51:08.417Z,2.20
2018-07-04T13:53:54.477Z,2.20
2018-07-04T13:56:40.735Z,2.27
2018-07-04T13:59:27.247Z,2.57
2018-07-04T14:02:15.350Z,2.27
2018-07-04T14:05:01.782Z,2.13
2018-07-04T14:07:48.187Z,2.30
2018-07-04T14:10:34.390Z,2.60
2018-07-04T14:13:20.811Z,2.27
2018-07-04T14:16:07.105Z,2.10
2018-07-04T14:18:53.453Z,2.90
2018-07-04T14:21:39.915Z,2.47
2018-07-04T14:24:26.106Z,2.10
2018-07-04T14:27:12.353Z,2.53
2018-07-04T14:29:58.646Z,2.30
2018-07-04T14:32:44.824Z,2.47
2018-07-04T14:35:31.245Z,2.10
2018-07-04T14:38:17.265Z,1.90
2018-07-04T14:41:03.339Z,2.90
2018-07-04T14:43:49.591Z,2.30
2018-07-04T14:46:35.803Z,3.03
2018-07-04T14:49:22.194Z,2.47
2018-07-04T14:52:09.313Z,2.20
2018-07-04T14:54:55.480Z,2.20
2018-07-04T14:57:41.749Z,2.60
2018-07-04T15:00:28.088Z,2.90
2018-07-04T15:03:14.168Z,2.33
2018-07-04T15:06:00.470Z,2.70
2018-07-04T15:08:47.178Z,2.97
2018-07-04T15:11:33.624Z,2.80
2018-07-04T15:14:19.784Z,2.47
2018-07-04T15:16:59.979Z,2.50
2018-07-04T15:19:46.351Z,2.60
2018-07-04T15:22:32.723Z,2.40
2018-07-04T15:25:18.954Z,2.40
2018-07-04T15:28:05.180Z,2.03
2018-07-04T15:30:51.272Z,2.27
2018-07-04T15:33:37.435Z,2.53
2018-07-04T15:36:23.552Z,2.20
2018-07-04T15:39:09.765Z,2.30
2018-07-04T15:41:56.187Z,2.43
2018-07-04T15:44:42.314Z,2.90
2018-07-04T15:47:28.510Z,2.63
2018-07-04T15:50:14.628Z,2.37
2018-07-04T15:53:00.841Z,2.30
2018-07-04T15:55:47.136Z,2.27
2018-07-04T15:58:33.580Z,2.50
2018-07-04T16:01:19.846Z,3.87
2018-07-04T16:04:06.091Z,2.90
2018-07-04T16:06:52.340Z,2.33
2018-07-04T16:09:38.906Z,2.50
2018-07-04T16:12:25.199Z,2.43
2018-07-04T16:15:12.044Z,2.20
2018-07-04T16:17:52.460Z,2.53
2018-07-04T16:20:38.973Z,2.90
2018-07-04T16:23:25.171Z,3.10
2018-07-04T16:26:11.531Z,3.00
2018-07-04T16:28:57.795Z,2.60
2018-07-04T16:31:44.230Z,3.20
2018-07-04T16:34:30.407Z,2.20
2018-07-04T16:37:10.761Z,2.60
2018-07-04T16:39:51.296Z,3.57
2018-07-04T16:42:37.469Z,4.83
2018-07-04T16:45:23.775Z,3.10
2018-07-04T16:48:10.274Z,2.60
2018-07-04T16:50:56.609Z,2.47
2018-07-04T16:53:42.785Z,2.90
2018-07-04T16:56:29.394Z,2.97
2018-07-04T16:59:10.308Z,3.27
2018-07-04T17:01:50.652Z,2.20
2018-07-04T17:04:37.157Z,2.50
2018-07-04T17:07:23.550Z,2.43
2018-07-04T17:10:10.148Z,2.57
2018-07-04T17:12:56.427Z,3.30
2018-07-04T17:15:42.676Z,2.23
2018-07-04T17:18:28.788Z,2.87
2018-07-04T17:21:15.494Z,2.27
2018-07-04T17:24:01.883Z,3.10
2018-07-04T17:26:48.368Z,2.10
2018-07-04T17:29:34.582Z,2.90
2018-07-04T17:32:21.047Z,2.80
2018-07-04T17:35:07.280Z,2.27
2018-07-04T17:37:53.735Z,2.70
2018-07-04T17:40:40.045Z,2.50
2018-07-04T17:43:26.187Z,2.80
2018-07-04T17:46:12.549Z,2.40
2018-07-04T17:48:58.874Z,2.40
2018-07-04T17:51:44.964Z,2.63
2018-07-04T17:54:32.445Z,2.80
2018-07-04T17:57:18.674Z,2.50
2018-07-04T18:00:05.075Z,2.90
2018-07-04T18:02:51.258Z,2.40
2018-07-04T18:05:37.491Z,2.70
2018-07-04T18:08:17.947Z,3.37
2018-07-04T18:11:04.422Z,2.97
2018-07-04T18:13:50.798Z,2.53
2018-07-04T18:16:37.200Z,2.27
2018-07-04T18:19:23.628Z,2.57
2018-07-04T18:22:09.933Z,2.03
2018-07-04T18:24:56.170Z,2.17
2018-07-04T18:27:42.985Z,2.60
2018-07-04T18:30:29.323Z,3.53
2018-07-04T18:33:15.605Z,2.60
2018-07-04T18:36:01.884Z,2.83
2018-07-04T18:38:48.240Z,2.50
2018-07-04T18:41:34.474Z,3.03
2018-07-04T18:44:20.927Z,2.87
2018-07-04T18:47:07.109Z,2.50
2018-07-04T18:49:53.480Z,2.80
2018-07-04T18:52:33.666Z,2.90
2018-07-04T18:55:20.251Z,2.37
2018-07-04T18:58:06.648Z,2.43
2018-07-04T19:00:53.038Z,5.70
2018-07-04T19:03:39.590Z,2.67
2018-07-04T19:06:25.897Z,3.13
2018-07-04T19:09:12.032Z,2.67
2018-07-04T19:11:58.359Z,2.60
2018-07-04T19:14:44.452Z,2.57
2018-07-04T19:17:30.727Z,2.83
2018-07-04T19:20:16.886Z,2.90
2018-07-04T19:23:03.119Z,3.17
2018-07-04T19:25:49.381Z,3.13
2018-07-04T19:28:35.589Z,2.80
2018-07-04T19:31:21.711Z,2.80
2018-07-04T19:34:08.113Z,3.77
2018-07-04T19:36:54.425Z,3.30
2018-07-04T19:39:40.787Z,3.07
2018-07-04T19:42:27.053Z,2.77
2018-07-04T19:45:13.391Z,2.83
2018-07-04T19:47:59.531Z,2.90
2018-07-04T19:50:46.233Z,3.17
2018-07-04T19:53:32.381Z,2.77
2018-07-04T19:56:18.538Z,2.80
2018-07-04T19:58:58.725Z,3.67
2018-07-04T20:01:44.996Z,3.20
2018-07-04T20:04:31.396Z,3.27
2018-07-04T20:07:17.891Z,3.07
2018-07-04T20:10:04.263Z,3.40
2018-07-04T20:12:50.543Z,3.60
2018-07-04T20:15:36.943Z,2.90
2018-07-04T20:18:23.445Z,3.10
2018-07-04T20:21:09.642Z,3.03
2018-07-04T20:23:55.939Z,3.30
2018-07-04T20:26:42.292Z,2.80
2018-07-04T20:29:28.768Z,2.60
2018-07-04T20:32:14.864Z,3.03
2018-07-04T20:35:01.122Z,3.00
2018-07-04T20:37:47.470Z,3.10
2018-07-04T20:40:33.704Z,3.27
2018-07-04T20:43:19.868Z,3.10
2018-07-04T20:46:06.149Z,3.20
2018-07-04T20:48:52.568Z,3.93
2018-07-04T20:51:38.944Z,2.73
2018-07-04T20:54:25.107Z,3.27
2018-07-04T20:57:11.601Z,2.63
2018-07-04T20:59:58.164Z,3.17
2018-07-04T21:02:44.606Z,2.50
2018-07-04T21:05:30.947Z,3.00
2018-07-04T21:08:17.450Z,2.90
2018-07-04T21:11:03.552Z,2.77
2018-07-04T21:13:49.799Z,3.30
2018-07-04T21:16:36.199Z,2.80
2018-07-04T21:19:22.514Z,2.37
2018-07-04T21:22:08.695Z,2.90
2018-07-04T21:24:54.786Z,3.43
2018-07-04T21:27:41.014Z,3.20
2018-07-04T21:30:27.410Z,3.20
2018-07-04T21:33:14.800Z,3.30
2018-07-04T21:36:01.419Z,3.70
2018-07-04T21:38:49.201Z,2.87
2018-07-04T21:41:35.350Z,3.00
2018-07-04T21:44:21.857Z,3.37
2018-07-04T21:47:08.573Z,3.07
2018-07-04T21:49:54.851Z,2.73
2018-07-04T21:52:40.920Z,3.13
2018-07-04T21:55:27.094Z,2.93
2018-07-04T21:58:13.449Z,2.67
2018-07-04T22:00:59.882Z,2.70
2018-07-04T22:03:46.558Z,2.97
2018-07-04T22:06:32.922Z,2.50
2018-07-04T22:09:19.156Z,2.53
2018-07-04T22:12:05.584Z,2.43
2018-07-04T22:14:51.820Z,2.83
2018-07-04T22:17:38.030Z,3.13
2018-07-04T22:20:24.413Z,2.17
2018-07-04T22:23:10.552Z,2.83
2018-07-04T22:25:56.883Z,3.00
2018-07-04T22:28:43.152Z,2.70
2018-07-04T22:31:29.446Z,2.87
2018-07-04T22:34:15.606Z,2.70
2018-07-04T22:37:02.607Z,2.20
2018-07-04T22:39:49.658Z,2.70
2018-07-04T22:42:36.147Z,2.63
2018-07-04T22:45:22.327Z,2.57
2018-07-04T22:48:08.562Z,2.37
2018-07-04T22:50:54.821Z,2.90
2018-07-04T22:53:41.581Z,3.10
2018-07-04T22:56:27.710Z,2.60
2018-07-04T22:59:14.283Z,2.57
2018-07-04T23:02:00.762Z,3.13
2018-07-04T23:04:46.925Z,3.10
2018-07-04T23:07:33.387Z,16.17
2018-07-04T23:10:25.359Z,4.60
2018-07-04T23:13:11.873Z,2.60
2018-07-04T23:16:01.848Z,3.53
2018-07-04T23:18:48.527Z,2.60
2018-07-04T23:21:34.896Z,3.10
2018-07-04T23:24:21.291Z,3.17
2018-07-04T23:27:07.588Z,3.17
2018-07-04T23:29:54.096Z,3.20
2018-07-04T23:32:40.618Z,2.93
2018-07-04T23:35:26.757Z,3.17
2018-07-04T23:38:13.285Z,3.50
2018-07-04T23:40:59.390Z,3.30
2018-07-04T23:43:46.161Z,3.87
2018-07-04T23:46:32.520Z,3.07
2018-07-04T23:49:18.938Z,2.73
2018-07-04T23:52:05.368Z,2.77
2018-07-04T23:54:51.893Z,2.80
2018-07-04T23:57:38.349Z,3.20
